Time;durP1;ratioP1;P1;durP2;ratioP2;P2;SDS_P1;SDS_P2;PMS_P1;PMS_P2;Temp;Humidity;BMP_temperature;BMP_pressure;BME280_temperature;BME280_humidity;BME280_pressure;Samples;Min_cycle;Max_cycle;Signal;HPM_P1;HPM_P2
2023/03/14 00:01:40;;;;;;;0.00;0.00;;;15.10;66.00;;;;;;6246779;28;20032;-72
2023/03/14 00:04:41;;;;;;;2.20;0.30;;;15.20;65.90;;;;;;6224954;28;20749;-72
2023/03/14 00:07:42;;;;;;;0.47;0.13;;;15.20;66.00;;;;;;6239873;28;20511;-75
2023/03/14 00:10:43;;;;;;;0.20;0.20;;;15.20;66.30;;;;;;6224670;28;20030;-73
2023/03/14 00:13:48;;;;;;;1.88;0.30;;;15.20;66.40;;;;;;6224444;28;20033;-72
2023/03/14 00:16:49;;;;;;;0.70;0.13;;;15.30;66.60;;;;;;6224390;28;20030;-72
2023/03/14 00:19:52;;;;;;;0.38;0.17;;;15.40;66.80;;;;;;6218514;28;20037;-73
2023/03/14 00:22:53;;;;;;;0.10;0.10;;;15.40;66.90;;;;;;6224214;28;20033;-72
2023/03/14 00:25:57;;;;;;;2.80;0.15;;;15.40;67.00;;;;;;6246880;28;20107;-73
2023/03/14 00:28:58;;;;;;;0.10;0.10;;;15.50;67.00;;;;;;6250649;28;20120;-72
2023/03/14 00:31:59;;;;;;;0.05;0.00;;;15.50;66.90;;;;;;6270911;28;20040;-73
2023/03/14 00:35:00;;;;;;;0.65;0.10;;;15.50;66.80;;;;;;6271251;28;20367;-72
2023/03/14 00:38:01;;;;;;;4.03;0.28;;;15.50;66.70;;;;;;6252517;28;20067;-73
2023/03/14 00:41:10;;;;;;;0.17;0.03;;;15.50;66.80;;;;;;6253231;28;20081;-72
2023/03/14 03:45:44;;;;;;;0.13;0.10;;;15.20;67.40;;;;;;5665962;30;20457;-72
2023/03/14 04:47:35;;;;;;;3.30;0.30;;;15.30;68.00;;;;;;6162092;28;20352;-74
2023/03/14 05:02:31;;;;;;;2.63;0.28;;;15.30;67.70;;;;;;6379918;27;20802;-72
2023/03/14 05:26:26;;;;;;;0.10;0.10;;;15.10;67.10;;;;;;6415260;27;20628;-73
2023/03/14 05:29:47;;;;;;;0.93;0.20;;;14.90;67.30;;;;;;6371233;27;20082;-72
2023/03/14 05:32:54;;;;;;;0.52;0.17;;;14.90;67.20;;;;;;6393979;27;20483;-72
2023/03/14 05:45:13;;;;;;;0.32;0.28;;;14.90;66.90;;;;;;5799724;30;20576;-74
2023/03/14 06:18:09;;;;;;;1.40;0.43;;;14.80;67.10;;;;;;6323306;28;20036;-73
2023/03/14 06:21:13;;;;;;;2.22;0.50;;;14.80;67.20;;;;;;6193807;28;20035;-73
2023/03/14 06:24:14;;;;;;;2.38;0.20;;;14.80;67.20;;;;;;6129611;28;20047;-72
2023/03/14 06:27:20;;;;;;;0.20;0.20;;;14.80;67.10;;;;;;5877884;29;1353095;-72
2023/03/14 06:30:22;;;;;;;0.40;0.20;;;14.90;66.80;;;;;;5652447;30;20049;-74
2023/03/14 06:33:23;;;;;;;3.10;0.28;;;14.90;66.80;;;;;;5599298;31;20085;-72
2023/03/14 06:36:25;;;;;;;0.73;0.50;;;14.90;66.60;;;;;;5600032;31;20495;-72
2023/03/14 06:39:26;;;;;;;1.17;0.40;;;14.90;66.60;;;;;;5600976;31;20047;-73
2023/03/14 06:42:35;;;;;;;4.25;0.30;;;14.90;66.60;;;;;;5600158;31;20054;-71
2023/03/14 06:45:36;;;;;;;0.43;0.20;;;15.00;66.70;;;;;;5587943;31;20047;-73
2023/03/14 06:48:38;;;;;;;1.02;0.45;;;15.00;66.50;;;;;;5587957;31;20052;-73
2023/03/14 06:51:39;;;;;;;0.45;0.30;;;14.80;66.30;;;;;;5601270;31;20109;-73
2023/03/14 06:54:41;;;;;;;1.30;0.98;;;15.00;66.40;;;;;;5600506;31;20040;-74
2023/03/14 06:57:43;;;;;;;0.20;0.20;;;15.00;66.40;;;;;;5562017;32;20047;-73
2023/03/14 07:00:45;;;;;;;4.90;0.43;;;15.00;65.80;;;;;;5585882;31;20063;-73
2023/03/14 07:03:49;;;;;;;1.00;0.20;;;15.00;65.30;;;;;;5586003;31;20161;-74
2023/03/14 07:06:50;;;;;;;0.10;0.10;;;15.10;64.50;;;;;;5587088;31;20079;-73
2023/03/14 07:09:51;;;;;;;2.85;0.30;;;15.10;64.40;;;;;;5561484;31;20043;-75
2023/03/14 07:12:52;;;;;;;0.73;0.40;;;15.00;64.30;;;;;;5587611;31;20074;-73
2023/03/14 07:15:54;;;;;;;3.15;0.30;;;15.10;64.50;;;;;;5594520;31;20075;-74
2023/03/14 07:18:55;;;;;;;4.93;0.57;;;15.00;64.50;;;;;;5581093;31;20164;-74
2023/03/14 07:21:57;;;;;;;1.80;0.40;;;15.00;64.60;;;;;;5604719;31;20043;-74
2023/03/14 07:25:01;;;;;;;1.23;0.57;;;15.00;64.40;;;;;;5578463;31;20468;-72
2023/03/14 07:28:02;;;;;;;0.35;0.30;;;15.10;64.80;;;;;;5597819;31;20139;-74
2023/03/14 07:31:04;;;;;;;0.57;0.47;;;15.10;65.10;;;;;;5666079;30;1378033;-72
2023/03/14 07:34:07;;;;;;;0.95;0.57;;;15.10;65.40;;;;;;5818618;30;20416;-73
2023/03/14 07:37:11;;;;;;;1.58;0.40;;;15.10;66.40;;;;;;5817956;30;20082;-74
2023/03/14 07:40:14;;;;;;;0.80;0.43;;;15.00;65.60;;;;;;5789589;30;20042;-73
2023/03/14 07:43:16;;;;;;;1.55;0.43;;;15.00;65.70;;;;;;5803771;30;20042;-73
2023/03/14 07:46:22;;;;;;;1.85;0.55;;;15.00;65.50;;;;;;5788151;30;20129;-73
2023/03/14 07:49:23;;;;;;;5.18;1.00;;;15.10;65.40;;;;;;5782479;30;20150;-74
2023/03/14 07:52:24;;;;;;;0.50;0.40;;;15.00;65.20;;;;;;5769102;30;20512;-73
2023/03/14 07:55:25;;;;;;;1.50;0.52;;;15.00;65.30;;;;;;5782342;30;20038;-73
2023/03/14 07:58:26;;;;;;;1.50;0.70;;;15.00;65.20;;;;;;5789665;30;20039;-73
2023/03/14 08:01:28;;;;;;;8.60;1.00;;;14.90;65.40;;;;;;5789901;30;20034;-74
2023/03/14 08:04:29;;;;;;;6.32;1.25;;;14.90;65.80;;;;;;5789824;30;20058;-73
2023/03/14 08:20:35;;;;;;;0.98;0.80;;;14.80;66.80;;;;;;5789371;30;19923;-74
2023/03/14 08:23:36;;;;;;;3.10;1.30;;;14.80;66.50;;;;;;5768579;30;20038;-75
2023/03/14 08:26:37;;;;;;;1.70;1.02;;;14.70;66.40;;;;;;5776673;30;20061;-73
2023/03/14 08:29:41;;;;;;;2.17;1.00;;;14.70;66.30;;;;;;5869327;29;20039;-74
2023/03/14 08:32:42;;;;;;;2.83;0.90;;;14.70;66.30;;;;;;6051509;29;20044;-72
2023/03/14 08:35:43;;;;;;;3.28;1.30;;;14.70;66.20;;;;;;6076207;29;20036;-75
2023/03/14 08:38:46;;;;;;;2.45;1.00;;;14.70;66.30;;;;;;6077077;29;20044;-74
2023/03/14 08:41:49;;;;;;;2.80;1.13;;;14.60;66.30;;;;;;6078641;29;20361;-73
2023/03/14 08:44:51;;;;;;;3.83;1.77;;;14.70;66.50;;;;;;6087567;29;20029;-73
2023/03/14 08:47:52;;;;;;;3.90;1.33;;;14.70;66.50;;;;;;6053846;29;20392;-74
2023/03/14 08:50:53;;;;;;;1.58;0.80;;;14.70;66.60;;;;;;6053519;29;20088;-73
2023/03/14 08:53:54;;;;;;;1.27;0.90;;;14.70;66.50;;;;;;6067633;29;20140;-74
2023/03/14 08:56:56;;;;;;;1.70;0.60;;;14.70;66.50;;;;;;6052624;29;20054;-73
2023/03/14 08:59:57;;;;;;;0.85;0.40;;;14.70;66.60;;;;;;6053697;29;20069;-74
2023/03/14 09:02:58;;;;;;;0.93;0.60;;;14.70;66.50;;;;;;6053935;29;20044;-73
2023/03/14 09:06:07;;;;;;;3.25;0.90;;;14.70;66.60;;;;;;6053655;29;20029;-72
2023/03/14 09:09:08;;;;;;;3.75;0.77;;;14.70;66.20;;;;;;6067711;29;20036;-73
2023/03/14 09:12:10;;;;;;;2.60;0.75;;;14.70;66.20;;;;;;6054180;29;20165;-73
2023/03/14 09:15:11;;;;;;;1.10;0.60;;;14.70;66.00;;;;;;6052887;29;20091;-72
2023/03/14 09:18:12;;;;;;;2.80;0.90;;;14.70;66.00;;;;;;6054013;29;20108;-73
2023/03/14 09:21:13;;;;;;;1.60;0.73;;;14.70;66.10;;;;;;6068619;29;20045;-73
2023/03/14 09:24:14;;;;;;;0.70;0.38;;;14.80;66.20;;;;;;6089053;29;20116;-72
2023/03/14 09:27:16;;;;;;;1.73;0.80;;;14.80;65.90;;;;;;6061820;29;20037;-71
2023/03/14 09:30:17;;;;;;;1.55;0.63;;;14.80;65.80;;;;;;6101183;28;20032;-73
2023/03/14 09:33:19;;;;;;;3.88;1.10;;;14.80;66.00;;;;;;6066125;28;20037;-72
2023/03/14 09:36:20;;;;;;;2.92;0.68;;;14.70;66.20;;;;;;6070334;29;20033;-73
2023/03/14 09:39:21;;;;;;;8.02;1.20;;;14.70;66.30;;;;;;6054728;29;20033;-73
2023/03/14 09:42:26;;;;;;;0.50;0.40;;;14.70;66.50;;;;;;6068971;29;20037;-73
2023/03/14 09:45:33;;;;;;;1.05;0.60;;;14.50;67.60;;;;;;6064027;29;20482;-74
2023/03/14 09:48:35;;;;;;;1.87;0.80;;;14.50;68.00;;;;;;6077426;29;20037;-73
2023/03/14 09:51:37;;;;;;;2.85;0.75;;;14.50;67.50;;;;;;6076013;29;20379;-75
2023/03/14 09:54:47;;;;;;;1.65;1.02;;;14.50;67.50;;;;;;6078122;29;20104;-74
2023/03/14 09:57:51;;;;;;;3.17;1.35;;;14.40;67.60;;;;;;6093198;29;20032;-74
2023/03/14 10:00:56;;;;;;;4.13;1.30;;;14.30;67.80;;;;;;6079670;29;20044;-73
2023/03/14 10:04:04;;;;;;;4.55;1.83;;;14.30;68.10;;;;;;6094796;29;20509;-73
2023/03/14 10:07:05;;;;;;;8.93;1.20;;;14.30;68.40;;;;;;6087404;29;20054;-72
2023/03/14 10:10:13;;;;;;;6.10;1.20;;;14.30;68.70;;;;;;6095276;29;20040;-74
2023/03/14 10:13:25;;;;;;;1.70;0.77;;;14.30;68.80;;;;;;6077141;29;20095;-73
2023/03/14 10:16:32;;;;;;;2.28;1.08;;;14.30;68.70;;;;;;6077170;29;20044;-72
2023/03/14 10:19:35;;;;;;;2.80;1.40;;;14.30;68.80;;;;;;6091348;29;20029;-74
2023/03/14 10:22:36;;;;;;;1.55;0.68;;;14.30;68.70;;;;;;6075245;29;20055;-75
2023/03/14 10:25:39;;;;;;;4.78;1.60;;;14.40;68.60;;;;;;6075543;29;20036;-75
2023/03/14 10:29:03;;;;;;;3.47;0.68;;;14.60;68.50;;;;;;6082580;29;20044;-74
2023/03/14 10:32:07;;;;;;;1.23;0.55;;;14.60;68.00;;;;;;6147498;28;20115;-74
2023/03/14 10:35:20;;;;;;;0.40;0.40;;;14.60;67.40;;;;;;6129311;29;20031;-73
2023/03/14 10:38:30;;;;;;;3.50;0.38;;;14.50;66.60;;;;;;6146489;28;20023;-73
2023/03/14 10:41:33;;;;;;;2.92;0.40;;;14.50;66.40;;;;;;6130091;29;20042;-74
2023/03/14 10:44:35;;;;;;;3.50;0.77;;;14.50;66.00;;;;;;6149852;28;20045;-74
2023/03/14 10:47:47;;;;;;;1.20;0.50;;;14.50;65.00;;;;;;6172782;28;20094;-73
2023/03/14 10:51:10;;;;;;;0.80;0.40;;;14.40;65.10;;;;;;6171302;28;20085;-74
2023/03/14 10:54:25;;;;;;;0.35;0.30;;;14.30;64.60;;;;;;6171596;28;20056;-75
2023/03/14 10:57:27;;;;;;;3.17;0.85;;;14.20;64.30;;;;;;6153732;28;20344;-74
2023/03/14 11:00:32;;;;;;;2.85;0.80;;;14.20;65.10;;;;;;6157230;28;20034;-74
2023/03/14 11:03:36;;;;;;;4.53;1.00;;;14.20;65.60;;;;;;6173681;28;20043;-72
2023/03/14 11:06:54;;;;;;;1.17;0.68;;;14.30;66.10;;;;;;6175021;28;20039;-74
2023/03/14 11:10:31;;;;;;;1.75;0.80;;;14.40;65.80;;;;;;6158311;28;20030;-75
2023/03/14 11:14:01;;;;;;;3.00;0.52;;;14.60;64.60;;;;;;6124430;29;20051;-74
2023/03/14 11:17:27;;;;;;;9.18;0.85;;;14.80;62.80;;;;;;6015078;29;20423;-73
2023/03/14 11:20:42;;;;;;;3.55;0.50;;;15.10;61.50;;;;;;6014745;29;20132;-72
2023/03/14 11:23:44;;;;;;;7.70;1.02;;;15.40;60.50;;;;;;6030252;29;20045;-72
2023/03/14 11:27:22;;;;;;;2.72;0.38;;;15.80;60.10;;;;;;5999317;29;20034;-73
2023/03/14 11:30:52;;;;;;;1.05;0.32;;;16.10;58.80;;;;;;6042139;29;20049;-74
2023/03/14 11:33:56;;;;;;;2.83;0.50;;;16.50;57.40;;;;;;6038170;29;20085;-73
2023/03/14 11:37:06;;;;;;;1.88;0.88;;;16.80;56.30;;;;;;6053707;29;20093;-73
2023/03/14 11:40:18;;;;;;;1.65;0.57;;;17.10;54.70;;;;;;6039572;29;20538;-74
2023/03/14 11:43:55;;;;;;;1.85;0.60;;;17.40;53.60;;;;;;6031834;29;20208;-72
2023/03/14 11:47:02;;;;;;;2.75;0.30;;;17.50;52.30;;;;;;6030908;29;20128;-75
2023/03/14 11:50:17;;;;;;;2.38;0.80;;;17.70;51.60;;;;;;6021103;29;20151;-75
2023/03/14 11:53:29;;;;;;;2.97;0.70;;;18.10;50.70;;;;;;6029184;29;20048;-74
2023/03/14 11:57:14;;;;;;;1.13;0.65;;;18.30;49.90;;;;;;6076702;29;20045;-73
2023/03/14 12:00:19;;;;;;;1.45;0.57;;;18.60;49.70;;;;;;6030971;29;20051;-76
2023/03/14 12:03:50;;;;;;;2.90;0.50;;;18.70;48.80;;;;;;6039410;29;20069;-75
2023/03/14 12:06:51;;;;;;;1.10;0.68;;;18.70;48.60;;;;;;6054275;29;20411;-75
2023/03/14 12:09:54;;;;;;;2.67;0.90;;;18.80;48.80;;;;;;6053529;29;20049;-75
2023/03/14 12:12:57;;;;;;;3.10;0.57;;;19.00;48.60;;;;;;6038490;29;20131;-75
2023/03/14 12:16:03;;;;;;;3.33;0.82;;;19.20;48.10;;;;;;6038538;29;20117;-76
2023/03/14 12:19:28;;;;;;;1.88;0.32;;;19.40;47.50;;;;;;6023934;29;20040;-72
2023/03/14 12:22:35;;;;;;;7.53;0.85;;;19.50;46.00;;;;;;6066560;29;20432;-76
2023/03/14 12:25:36;;;;;;;1.40;0.52;;;19.20;45.20;;;;;;6075068;29;20486;-74
2023/03/14 12:28:52;;;;;;;3.42;0.68;;;19.00;46.30;;;;;;6059104;29;20097;-74
2023/03/14 12:32:08;;;;;;;2.10;0.40;;;19.60;46.20;;;;;;6119785;29;20106;-73
2023/03/14 12:35:54;;;;;;;4.75;1.10;;;20.60;44.90;;;;;;6123398;28;20090;-74
2023/03/14 12:39:05;;;;;;;3.30;0.50;;;21.60;43.90;;;;;;6192064;28;20045;-72
2023/03/14 12:42:29;;;;;;;1.10;0.55;;;22.90;41.70;;;;;;6200046;28;20096;-74
2023/03/14 12:45:35;;;;;;;1.55;0.50;;;23.60;39.00;;;;;;6204409;28;20074;-75
2023/03/14 12:48:39;;;;;;;3.35;0.70;;;24.30;37.70;;;;;;6221128;28;20046;-76
2023/03/14 12:51:45;;;;;;;3.40;0.63;;;24.60;37.10;;;;;;6183011;28;20487;-75
2023/03/14 12:55:04;;;;;;;2.20;0.70;;;24.50;37.30;;;;;;6196753;28;20117;-77
2023/03/14 12:58:13;;;;;;;1.67;0.52;;;24.50;36.50;;;;;;6196372;28;20058;-75
2023/03/14 13:01:22;;;;;;;1.52;0.55;;;24.20;36.30;;;;;;6172722;28;20363;-76
2023/03/14 13:04:35;;;;;;;2.60;0.55;;;23.60;36.70;;;;;;6171564;28;20130;-76
2023/03/14 13:07:39;;;;;;;1.67;0.40;;;23.10;37.70;;;;;;6178280;28;20093;-76
2023/03/14 13:19:45;;;;;;;2.70;0.70;;;22.10;39.50;;;;;;6195532;28;19914;-74
2023/03/14 13:31:31;;;;;;;;;;;20.30;41.90;;;;;;6218482;28;20034;-75
2023/03/14 13:34:51;;;;;;;4.68;0.70;;;19.80;42.90;;;;;;6220225;28;19909;-75
2023/03/14 13:37:59;;;;;;;2.13;0.40;;;19.40;43.30;;;;;;6219375;28;20395;-77
2023/03/14 13:41:06;;;;;;;5.07;1.95;;;19.10;44.00;;;;;;6220653;28;20068;-75
2023/03/14 14:02:21;;;;;;;3.53;0.38;;;17.90;46.20;;;;;;6075571;29;20521;-76
2023/03/14 14:05:23;;;;;;;1.52;0.60;;;17.60;46.70;;;;;;6058860;29;20111;-74
2023/03/14 14:08:26;;;;;;;4.45;0.50;;;17.50;47.30;;;;;;6074177;29;20043;-75
2023/03/14 14:11:39;;;;;;;1.02;0.32;;;17.30;47.80;;;;;;6074356;29;20060;-75
2023/03/14 14:14:54;;;;;;;2.03;0.40;;;17.10;48.20;;;;;;6074213;29;20068;-76
2023/03/14 14:18:08;;;;;;;2.40;0.45;;;17.10;48.50;;;;;;6075935;29;20097;-75
2023/03/14 14:21:12;;;;;;;2.60;0.40;;;17.10;48.50;;;;;;6126468;28;20042;-76
2023/03/14 14:24:15;;;;;;;1.98;0.60;;;17.00;48.40;;;;;;6165941;28;20494;-76
2023/03/14 14:27:24;;;;;;;2.53;0.60;;;16.90;48.40;;;;;;6206466;28;20467;-74
2023/03/14 14:30:30;;;;;;;1.08;0.60;;;16.90;48.60;;;;;;6222553;28;20040;-75
2023/03/14 14:34:02;;;;;;;3.33;0.63;;;16.80;49.00;;;;;;6205560;28;20095;-76
2023/03/14 14:37:03;;;;;;;19.38;1.05;;;16.70;49.30;;;;;;6223591;28;20603;-75
2023/03/14 14:40:18;;;;;;;2.35;0.43;;;16.70;49.60;;;;;;6207214;28;20026;-75
2023/03/14 14:43:26;;;;;;;2.05;0.35;;;16.60;49.80;;;;;;6208373;28;20064;-75
2023/03/14 14:46:30;;;;;;;2.97;1.00;;;16.60;49.80;;;;;;6208609;28;20037;-75
2023/03/14 14:49:34;;;;;;;3.50;0.73;;;16.60;49.90;;;;;;6227796;28;20150;-76
2023/03/14 14:52:43;;;;;;;1.80;0.60;;;16.60;50.00;;;;;;6227252;28;20043;-75
2023/03/14 14:55:43;;;;;;;1.60;0.40;;;16.60;49.90;;;;;;6209197;28;20034;-76
2023/03/14 14:58:46;;;;;;;1.13;0.60;;;16.60;49.90;;;;;;6226471;28;20092;-75
2023/03/14 15:01:48;;;;;;;1.85;0.40;;;16.70;49.90;;;;;;6171692;28;20023;-75
2023/03/14 15:04:49;;;;;;;1.65;0.43;;;16.70;49.80;;;;;;6200684;28;20117;-75
2023/03/14 15:07:50;;;;;;;4.05;1.10;;;16.80;49.90;;;;;;6198776;28;20058;-74
2023/03/14 15:10:51;;;;;;;3.33;0.98;;;16.70;49.80;;;;;;6200261;28;20367;-75
2023/03/14 15:13:53;;;;;;;1.05;0.35;;;16.60;49.60;;;;;;6182875;28;20555;-75
2023/03/14 15:16:54;;;;;;;3.05;0.57;;;16.30;49.80;;;;;;6199844;28;20113;-77
2023/03/14 15:19:57;;;;;;;4.00;1.25;;;16.10;50.20;;;;;;6218703;28;20022;-76
2023/03/14 15:22:58;;;;;;;6.80;1.10;;;15.70;51.30;;;;;;6206420;28;20391;-74
2023/03/14 15:26:00;;;;;;;3.00;1.33;;;15.20;52.70;;;;;;6217946;28;20038;-74
2023/03/14 15:29:00;;;;;;;3.85;1.00;;;14.70;53.80;;;;;;6220469;28;20030;-75
2023/03/14 15:32:02;;;;;;;3.10;0.70;;;14.40;54.70;;;;;;6207200;28;20121;-75
2023/03/14 15:35:03;;;;;;;0.93;0.30;;;14.20;55.30;;;;;;6224595;28;20439;-75
2023/03/14 15:38:04;;;;;;;2.67;0.77;;;14.10;55.70;;;;;;6225146;28;20107;-74
2023/03/14 15:41:05;;;;;;;3.15;0.70;;;14.10;55.80;;;;;;6238408;28;20077;-75
2023/03/14 15:44:07;;;;;;;0.88;0.50;;;14.20;55.90;;;;;;6238139;28;20364;-75
2023/03/14 15:47:10;;;;;;;2.30;0.50;;;14.40;55.80;;;;;;6226854;28;20500;-75
2023/03/14 15:50:11;;;;;;;0.75;0.43;;;14.50;55.40;;;;;;6228344;28;20071;-75
2023/03/14 15:53:13;;;;;;;2.35;0.43;;;14.60;54.90;;;;;;6226127;28;20038;-76
2023/03/14 15:56:17;;;;;;;3.33;0.43;;;14.70;54.70;;;;;;6225188;28;20030;-76
2023/03/14 15:59:18;;;;;;;4.80;0.82;;;14.70;54.40;;;;;;6206465;28;20072;-76
2023/03/14 16:02:19;;;;;;;4.60;0.73;;;14.80;54.40;;;;;;6222875;28;20034;-75
2023/03/14 16:05:20;;;;;;;3.42;0.65;;;14.80;54.60;;;;;;6188067;28;20029;-75
2023/03/14 16:08:26;;;;;;;1.25;0.50;;;14.90;53.80;;;;;;6221902;28;20102;-75
2023/03/14 16:11:27;;;;;;;1.60;0.50;;;14.90;53.80;;;;;;6188354;28;20132;-75
2023/03/14 16:14:28;;;;;;;0.93;0.40;;;15.00;53.80;;;;;;6205847;28;20026;-74
2023/03/14 16:17:29;;;;;;;0.30;0.20;;;15.00;53.70;;;;;;6205343;28;20030;-75
2023/03/14 16:20:30;;;;;;;2.72;0.28;;;15.10;53.70;;;;;;6206106;28;20030;-77
2023/03/14 16:23:32;;;;;;;0.80;0.30;;;15.10;54.00;;;;;;6205872;28;20080;-76
2023/03/14 16:26:35;;;;;;;3.35;1.08;;;15.10;52.80;;;;;;6224578;28;20111;-75
2023/03/14 16:29:37;;;;;;;3.33;0.50;;;15.10;51.90;;;;;;6222303;28;20056;-75
2023/03/14 16:32:38;;;;;;;0.65;0.32;;;15.00;51.90;;;;;;6214115;28;20030;-74
2023/03/14 16:35:39;;;;;;;0.63;0.25;;;15.00;51.80;;;;;;6205976;28;20030;-74
2023/03/14 16:38:42;;;;;;;3.03;0.60;;;15.00;51.50;;;;;;6205910;28;20033;-75
2023/03/14 16:41:44;;;;;;;0.40;0.30;;;15.20;51.70;;;;;;6222728;28;20054;-74
2023/03/14 16:44:45;;;;;;;0.30;0.30;;;14.80;51.60;;;;;;6204774;28;20088;-75
2023/03/14 16:47:46;;;;;;;1.38;0.90;;;14.70;52.30;;;;;;6204022;28;20052;-75
2023/03/14 16:50:50;;;;;;;8.25;2.88;;;14.70;51.90;;;;;;6221920;28;20022;-75
2023/03/14 16:53:51;;;;;;;6.63;1.52;;;14.70;52.00;;;;;;6204678;28;20049;-76
2023/03/14 16:56:52;;;;;;;1.33;0.70;;;14.70;52.10;;;;;;6221613;28;20026;-74
2023/03/14 16:59:53;;;;;;;6.78;1.40;;;14.70;52.20;;;;;;6203741;28;20059;-76
2023/03/14 17:02:59;;;;;;;4.93;0.63;;;14.60;52.20;;;;;;6222106;28;20030;-76
2023/03/14 17:06:02;;;;;;;1.48;0.88;;;14.70;52.30;;;;;;6188321;28;20060;-76
2023/03/14 17:09:04;;;;;;;1.40;0.57;;;14.70;52.40;;;;;;6203523;28;20093;-77
2023/03/14 17:25:31;;;;;;;4.30;1.52;;;14.50;52.90;;;;;;6196244;28;20121;-77
2023/03/14 17:29:28;;;;;;;9.13;2.40;;;14.40;53.00;;;;;;6219406;28;20435;-76
2023/03/14 17:32:32;;;;;;;5.35;1.60;;;14.40;53.00;;;;;;6202668;28;20061;-74
2023/03/14 17:35:33;;;;;;;2.70;1.70;;;14.40;53.00;;;;;;6219132;28;20033;-74
2023/03/14 17:38:38;;;;;;;3.55;1.60;;;14.40;53.70;;;;;;6218234;28;20060;-74
2023/03/14 17:41:39;;;;;;;4.28;1.25;;;14.40;53.00;;;;;;6219800;28;20034;-75
2023/03/14 17:44:42;;;;;;;2.30;1.17;;;14.40;52.90;;;;;;6221040;28;20176;-75
2023/03/14 17:48:03;;;;;;;3.25;1.10;;;14.40;52.80;;;;;;6219761;28;20040;-74
2023/03/14 17:51:04;;;;;;;8.02;1.80;;;14.40;52.90;;;;;;6203194;28;20115;-74
2023/03/14 17:54:19;;;;;;;3.85;1.60;;;14.40;53.00;;;;;;6219814;28;20049;-74
2023/03/14 17:57:23;;;;;;;4.60;1.08;;;14.30;53.20;;;;;;6203339;28;20054;-76
2023/03/14 18:00:25;;;;;;;2.67;1.20;;;14.30;53.50;;;;;;6202339;28;20159;-75
2023/03/14 18:03:27;;;;;;;2.58;1.10;;;14.20;53.50;;;;;;6219031;28;20560;-75
2023/03/14 18:06:29;;;;;;;5.50;1.30;;;14.10;53.50;;;;;;6203125;28;20041;-76
2023/03/14 18:09:30;;;;;;;1.70;1.05;;;14.10;53.60;;;;;;6218500;28;20046;-76
2023/03/14 18:12:33;;;;;;;6.65;1.75;;;14.00;53.50;;;;;;6221583;28;20088;-74
2023/03/14 18:15:34;;;;;;;2.30;1.23;;;14.00;53.60;;;;;;6222122;28;20045;-76
2023/03/14 18:18:36;;;;;;;3.85;1.90;;;13.90;53.60;;;;;;6189718;28;20033;-76
2023/03/14 18:21:40;;;;;;;4.25;1.30;;;13.90;53.80;;;;;;6232168;28;20029;-76
2023/03/14 18:24:41;;;;;;;3.10;1.25;;;13.80;53.90;;;;;;6236476;28;20115;-74
2023/03/14 18:27:43;;;;;;;3.95;1.70;;;13.70;54.00;;;;;;6194866;28;20447;-74
2023/03/14 18:30:50;;;;;;;6.80;2.38;;;13.70;54.20;;;;;;6195870;28;20141;-74
2023/03/14 18:33:54;;;;;;;10.00;3.10;;;13.60;54.40;;;;;;6195648;28;20110;-73
2023/03/14 18:36:55;;;;;;;6.25;2.10;;;13.60;55.00;;;;;;6178556;28;20030;-73
2023/03/14 18:39:56;;;;;;;6.10;1.80;;;13.60;54.60;;;;;;6194216;28;20109;-75
2023/03/14 18:42:57;;;;;;;6.65;1.52;;;13.60;54.80;;;;;;6195460;28;20092;-73
2023/03/14 18:45:59;;;;;;;10.98;2.10;;;13.60;54.90;;;;;;6209283;28;20026;-74
2023/03/14 18:49:02;;;;;;;8.95;2.28;;;13.60;55.00;;;;;;6200825;28;20121;-74
2023/03/14 18:52:04;;;;;;;5.22;2.10;;;13.60;55.10;;;;;;6212971;28;20042;-73
2023/03/14 18:55:05;;;;;;;8.10;2.63;;;13.60;55.20;;;;;;6194474;28;20116;-75
2023/03/14 18:58:09;;;;;;;11.10;2.80;;;13.50;55.30;;;;;;6200618;28;20038;-74
2023/03/14 19:01:11;;;;;;;8.70;2.95;;;13.40;55.40;;;;;;6218280;28;20448;-77
2023/03/14 19:04:12;;;;;;;8.13;2.67;;;13.40;55.50;;;;;;6219143;28;20022;-74
2023/03/14 19:07:14;;;;;;;11.10;2.88;;;13.40;55.60;;;;;;6219064;28;20041;-74
2023/03/14 19:10:15;;;;;;;8.32;2.20;;;13.40;55.60;;;;;;6201789;28;20036;-75
2023/03/14 19:13:16;;;;;;;5.85;2.20;;;13.40;55.60;;;;;;6195339;28;20038;-75
2023/03/14 19:16:18;;;;;;;4.35;1.70;;;13.40;55.60;;;;;;6193639;28;20045;-75
2023/03/14 19:19:20;;;;;;;5.88;2.28;;;13.50;55.60;;;;;;6201009;28;20077;-74
2023/03/14 19:22:21;;;;;;;4.40;1.70;;;13.50;55.50;;;;;;6199690;28;20048;-75
2023/03/14 19:25:22;;;;;;;7.72;1.88;;;13.50;55.30;;;;;;6200101;28;20045;-73
2023/03/14 19:28:24;;;;;;;3.58;1.73;;;13.50;55.30;;;;;;6198177;28;20383;-74
2023/03/14 19:31:26;;;;;;;11.57;3.67;;;13.40;55.40;;;;;;6198919;28;20042;-74
2023/03/14 19:34:28;;;;;;;4.60;2.13;;;13.40;55.40;;;;;;6198573;28;20113;-75
2023/03/14 19:37:30;;;;;;;14.20;3.65;;;13.40;55.50;;;;;;6197828;28;20095;-76
2023/03/14 19:40:31;;;;;;;19.20;8.45;;;13.40;55.50;;;;;;6198483;28;20442;-75
2023/03/14 19:43:32;;;;;;;7.13;2.05;;;13.40;55.60;;;;;;6205685;28;20022;-76
2023/03/14 19:46:34;;;;;;;7.70;1.92;;;13.50;55.70;;;;;;6221923;28;20026;-76
2023/03/14 19:49:35;;;;;;;7.20;2.22;;;13.50;55.60;;;;;;6205451;28;20434;-74
2023/03/14 19:52:38;;;;;;;7.32;3.00;;;13.50;55.50;;;;;;6189613;28;20030;-77
2023/03/14 19:55:45;;;;;;;9.55;2.85;;;13.50;55.40;;;;;;6224092;28;20375;-74
2023/03/14 19:58:46;;;;;;;5.45;2.50;;;13.50;55.50;;;;;;6205890;28;20034;-75
2023/03/14 20:01:48;;;;;;;7.88;2.00;;;13.40;55.50;;;;;;6205322;28;20490;-74
2023/03/14 20:04:53;;;;;;;11.50;3.38;;;13.50;55.50;;;;;;6222873;28;20033;-76
2023/03/14 20:07:54;;;;;;;8.98;3.20;;;13.50;55.30;;;;;;6211380;28;20447;-76
2023/03/14 20:10:56;;;;;;;9.57;2.35;;;13.50;55.10;;;;;;6196477;28;20122;-74
2023/03/14 20:13:57;;;;;;;5.68;1.58;;;13.50;55.00;;;;;;6196411;28;20375;-76
2023/03/14 20:16:59;;;;;;;7.18;2.22;;;13.50;55.00;;;;;;6211588;28;20059;-75
2023/03/14 20:20:05;;;;;;;8.38;2.10;;;13.40;54.90;;;;;;6191777;28;20113;-75
2023/03/14 20:23:11;;;;;;;7.93;1.92;;;13.40;55.00;;;;;;6179156;28;20045;-73
2023/03/14 20:26:13;;;;;;;12.48;2.00;;;13.80;55.10;;;;;;6196196;28;20105;-75
2023/03/14 20:29:14;;;;;;;8.32;2.30;;;13.40;54.80;;;;;;6219755;28;20190;-75
2023/03/14 20:32:17;;;;;;;11.27;2.08;;;13.30;55.00;;;;;;6220075;28;20033;-77
2023/03/14 20:35:24;;;;;;;5.38;2.40;;;13.20;55.20;;;;;;6221593;28;20672;-74
2023/03/14 20:38:29;;;;;;;6.45;2.35;;;13.20;55.40;;;;;;6220123;28;20037;-74
2023/03/14 20:41:31;;;;;;;5.85;2.05;;;13.10;55.50;;;;;;6203872;28;20104;-76
2023/03/14 20:44:32;;;;;;;9.45;1.95;;;13.10;55.60;;;;;;6187814;28;20044;-71
2023/03/14 20:47:34;;;;;;;4.10;2.00;;;13.10;55.70;;;;;;6186346;28;20124;-71
2023/03/14 20:50:35;;;;;;;7.95;2.72;;;13.10;55.80;;;;;;6203175;28;20084;-75
2023/03/14 20:53:37;;;;;;;10.90;3.00;;;13.00;55.90;;;;;;6221142;28;20025;-75
2023/03/14 20:56:38;;;;;;;8.02;2.90;;;13.10;55.90;;;;;;6221319;28;20021;-74
2023/03/14 20:59:39;;;;;;;7.32;2.58;;;13.10;55.80;;;;;;6203635;28;20092;-74
2023/03/14 21:02:41;;;;;;;5.88;2.00;;;13.00;55.90;;;;;;6204666;28;20046;-75
2023/03/14 21:05:46;;;;;;;8.57;2.13;;;13.10;55.90;;;;;;6200629;28;20392;-74
2023/03/14 21:08:47;;;;;;;9.23;2.50;;;13.10;55.90;;;;;;6206463;28;20049;-74
2023/03/14 21:11:49;;;;;;;6.28;1.95;;;13.20;55.90;;;;;;6199973;28;20030;-75
2023/03/14 21:14:50;;;;;;;5.35;2.42;;;13.30;55.80;;;;;;6163713;28;20035;-75
2023/03/14 21:17:54;;;;;;;8.98;2.53;;;13.30;55.70;;;;;;6194977;28;20120;-74
2023/03/14 21:20:57;;;;;;;5.20;2.10;;;13.30;55.70;;;;;;6184205;23;20047;-75
2023/03/14 21:24:00;;;;;;;10.57;2.90;;;13.30;55.60;;;;;;6171863;28;20047;-76
2023/03/14 21:27:01;;;;;;;11.57;2.85;;;13.30;55.70;;;;;;6176789;28;20486;-76
2023/03/14 21:30:02;;;;;;;5.32;2.17;;;13.40;55.70;;;;;;6196249;28;20061;-75
2023/03/14 21:33:03;;;;;;;6.90;2.47;;;13.40;55.60;;;;;;6195171;28;20041;-72
2023/03/14 21:36:07;;;;;;;5.72;2.72;;;13.40;55.60;;;;;;6195285;28;20026;-71
2023/03/14 21:39:10;;;;;;;5.15;2.25;;;13.40;55.60;;;;;;6194185;28;20050;-72
2023/03/14 21:42:12;;;;;;;11.15;2.88;;;13.40;55.60;;;;;;6160990;28;20034;-71
2023/03/14 21:45:15;;;;;;;9.82;2.55;;;13.40;55.50;;;;;;6177339;28;20053;-70
2023/03/14 21:48:16;;;;;;;10.05;2.22;;;13.40;55.60;;;;;;6177524;28;20050;-70
2023/03/14 21:51:18;;;;;;;6.93;2.33;;;13.30;55.60;;;;;;6177303;28;20457;-71
2023/03/14 21:54:21;;;;;;;4.80;1.90;;;13.30;55.70;;;;;;6194710;28;20046;-70
2023/03/14 21:57:28;;;;;;;4.40;2.28;;;13.30;55.90;;;;;;6177166;28;20133;-71
2023/03/14 22:00:29;;;;;;;7.17;2.10;;;13.20;56.00;;;;;;6183412;28;20037;-72
2023/03/14 22:03:32;;;;;;;3.30;1.85;;;13.20;56.20;;;;;;6171076;28;20069;-69
2023/03/14 22:06:33;;;;;;;6.20;2.35;;;13.10;56.20;;;;;;6185778;28;20077;-71
2023/03/14 22:09:35;;;;;;;6.72;1.95;;;13.20;56.30;;;;;;6171131;28;20106;-71
2023/03/14 22:12:37;;;;;;;9.90;2.70;;;13.20;56.30;;;;;;6189881;28;20037;-71
2023/03/14 22:15:38;;;;;;;8.70;2.40;;;13.20;56.00;;;;;;6219386;28;20069;-69